createdAt,value
2018-03-16T00:00:39.864Z,4.07
2018-03-16T00:01:39.877Z,4.02
2018-03-16T00:02:39.896Z,4.02
2018-03-16T00:03:39.916Z,3.96
2018-03-16T00:04:39.924Z,4.02
2018-03-16T00:05:39.948Z,3.92
2018-03-16T00:06:39.964Z,3.98
2018-03-16T00:07:39.979Z,3.95
2018-03-16T00:08:39.998Z,3.90
2018-03-16T00:09:40.014Z,3.89
2018-03-16T00:10:40.025Z,3.98
2018-03-16T00:11:40.040Z,4.00
2018-03-16T00:12:40.073Z,4.04
2018-03-16T00:13:40.075Z,3.98
2018-03-16T00:14:40.089Z,3.98
2018-03-16T00:15:40.111Z,4.02
2018-03-16T00:16:40.126Z,3.93
2018-03-16T00:17:40.147Z,3.89
2018-03-16T00:18:40.158Z,3.84
2018-03-16T00:19:40.180Z,3.84
2018-03-16T00:20:40.203Z,3.89
2018-03-16T00:21:40.234Z,3.84
2018-03-16T00:22:40.227Z,3.84
2018-03-16T00:23:40.245Z,3.90
2018-03-16T00:24:40.261Z,3.89
2018-03-16T00:25:40.333Z,3.84
2018-03-16T00:26:40.293Z,3.99
2018-03-16T00:27:40.563Z,3.95
2018-03-16T00:28:40.330Z,3.82
2018-03-16T00:29:40.344Z,3.86
2018-03-16T00:30:40.358Z,3.86
2018-03-16T00:31:40.375Z,3.71
2018-03-16T00:32:40.395Z,3.92
2018-03-16T00:33:40.405Z,3.93
2018-03-16T00:34:40.425Z,3.86
2018-03-16T00:35:40.438Z,3.93
2018-03-16T00:36:40.456Z,3.93
2018-03-16T00:37:40.469Z,4.07
2018-03-16T00:38:40.495Z,4.02
2018-03-16T00:39:40.503Z,3.89
2018-03-16T00:40:40.523Z,3.93
2018-03-16T00:41:40.539Z,3.90
2018-03-16T00:42:40.553Z,3.88
2018-03-16T00:43:40.576Z,3.78
2018-03-16T00:44:40.592Z,3.90
2018-03-16T00:45:40.607Z,3.90
2018-03-16T00:46:40.625Z,3.86
2018-03-16T00:47:40.636Z,3.93
2018-03-16T00:48:40.656Z,3.98
2018-03-16T00:49:40.673Z,3.99
2018-03-16T00:50:40.683Z,4.04
2018-03-16T00:51:40.703Z,3.99
2018-03-16T00:52:40.728Z,4.06
2018-03-16T00:53:40.735Z,4.02
2018-03-16T00:54:40.756Z,4.04
2018-03-16T00:55:40.767Z,4.02
2018-03-16T00:56:40.792Z,4.04
2018-03-16T00:57:40.806Z,4.08
2018-03-16T00:58:40.827Z,4.00
2018-03-16T00:59:40.868Z,4.04
2018-03-16T01:00:40.852Z,3.98
2018-03-16T01:01:40.872Z,3.92
2018-03-16T01:02:40.884Z,3.82
2018-03-16T01:03:40.902Z,3.81
2018-03-16T01:04:40.917Z,3.82
2018-03-16T01:05:40.941Z,3.81
2018-03-16T01:06:40.952Z,3.86
2018-03-16T01:07:40.973Z,3.89
2018-03-16T01:08:40.989Z,3.86
2018-03-16T01:09:41.007Z,3.98
2018-03-16T01:10:41.021Z,3.98
2018-03-16T01:11:41.031Z,3.90
2018-03-16T01:12:41.052Z,3.86
2018-03-16T01:13:41.075Z,3.88
2018-03-16T01:14:41.100Z,3.74
2018-03-16T01:15:41.101Z,3.80
2018-03-16T01:16:41.120Z,3.75
2018-03-16T01:17:41.136Z,3.77
2018-03-16T01:18:41.150Z,3.78
2018-03-16T01:19:41.170Z,3.72
2018-03-16T01:20:41.181Z,3.86
2018-03-16T01:21:41.202Z,3.90
2018-03-16T01:22:41.219Z,3.93
2018-03-16T01:23:41.235Z,3.88
2018-03-16T01:24:41.254Z,3.89
2018-03-16T01:25:41.265Z,3.80
2018-03-16T01:26:41.285Z,3.75
2018-03-16T01:27:41.296Z,3.86
2018-03-16T01:28:41.316Z,3.77
2018-03-16T01:29:41.344Z,3.92
2018-03-16T01:30:41.356Z,3.95
2018-03-16T01:31:41.362Z,4.04
2018-03-16T01:32:41.381Z,3.93
2018-03-16T01:33:41.395Z,4.14
2018-03-16T01:34:41.411Z,4.13
2018-03-16T01:35:41.429Z,3.99
2018-03-16T01:36:41.450Z,3.90
2018-03-16T01:37:41.462Z,3.95
2018-03-16T01:38:41.482Z,3.96
2018-03-16T01:39:41.506Z,3.84
2018-03-16T01:40:41.512Z,3.98
2018-03-16T01:41:41.535Z,3.92
2018-03-16T01:42:41.554Z,3.98
2018-03-16T01:43:41.568Z,3.95
2018-03-16T01:44:41.582Z,3.88
2018-03-16T01:45:41.594Z,3.92
2018-03-16T01:46:41.614Z,3.90
2018-03-16T01:47:41.629Z,3.77
2018-03-16T01:48:41.650Z,3.72
2018-03-16T01:49:41.660Z,3.86
2018-03-16T01:50:41.684Z,3.67
2018-03-16T01:51:41.694Z,3.68
2018-03-16T01:52:41.719Z,3.75
2018-03-16T01:53:41.744Z,3.78
2018-03-16T01:54:41.744Z,3.77
2018-03-16T01:55:41.758Z,3.70
2018-03-16T01:56:41.779Z,3.64
2018-03-16T01:57:41.794Z,3.77
2018-03-16T01:58:41.808Z,3.86
2018-03-16T01:59:41.826Z,3.82
2018-03-16T02:00:41.861Z,3.81
2018-03-16T02:01:41.867Z,3.86
2018-03-16T02:02:41.882Z,3.86
2018-03-16T02:03:41.889Z,3.78
2018-03-16T02:04:41.912Z,3.71
2018-03-16T02:05:41.933Z,3.77
2018-03-16T02:06:41.948Z,3.74
2018-03-16T02:07:41.962Z,3.75
2018-03-16T02:08:41.983Z,3.75
2018-03-16T02:09:41.992Z,3.86
2018-03-16T02:10:42.023Z,3.89
2018-03-16T02:11:42.023Z,3.82
2018-03-16T02:12:42.037Z,3.89
2018-03-16T02:13:42.061Z,3.88
2018-03-16T02:14:42.082Z,3.88
2018-03-16T02:15:42.093Z,3.86
2018-03-16T02:16:42.112Z,3.82
2018-03-16T02:17:42.124Z,3.86
2018-03-16T02:18:42.139Z,3.86
2018-03-16T02:19:42.156Z,3.84
2018-03-16T02:20:42.174Z,3.82
2018-03-16T02:21:42.189Z,3.77
2018-03-16T02:22:42.202Z,3.89
2018-03-16T02:23:42.222Z,3.75
2018-03-16T02:24:42.246Z,3.81
2018-03-16T02:25:42.258Z,3.88
2018-03-16T02:26:42.277Z,3.98
2018-03-16T02:27:42.291Z,3.95
2018-03-16T02:28:42.307Z,3.84
2018-03-16T02:29:42.323Z,3.88
2018-03-16T02:30:42.351Z,3.75
2018-03-16T02:31:42.357Z,3.82
2018-03-16T02:32:42.370Z,3.75
2018-03-16T02:33:42.392Z,3.80
2018-03-16T02:34:42.406Z,3.80
2018-03-16T02:35:42.419Z,3.74
2018-03-16T02:36:42.438Z,3.63
2018-03-16T02:37:42.460Z,3.63
2018-03-16T02:38:42.723Z,3.59
2018-03-16T02:39:42.493Z,3.57
2018-03-16T02:40:42.507Z,3.72
2018-03-16T02:41:42.517Z,3.60
2018-03-16T02:42:42.535Z,3.52
2018-03-16T02:43:42.554Z,3.54
2018-03-16T02:44:42.577Z,3.53
2018-03-16T02:45:42.586Z,3.49
2018-03-16T02:46:42.601Z,3.56
2018-03-16T02:47:42.617Z,3.70
2018-03-16T02:48:42.636Z,3.57
2018-03-16T02:49:42.657Z,3.54
2018-03-16T02:50:42.667Z,3.42
2018-03-16T02:51:42.690Z,3.49
2018-03-16T02:52:42.696Z,3.52
2018-03-16T02:53:42.721Z,3.52
2018-03-16T02:54:42.735Z,3.37
2018-03-16T02:55:42.747Z,3.46
2018-03-16T02:56:42.760Z,3.49
2018-03-16T02:57:42.780Z,3.39
2018-03-16T02:58:42.799Z,3.44
2018-03-16T02:59:42.817Z,3.44
2018-03-16T03:00:42.830Z,3.44
2018-03-16T03:01:42.844Z,3.44
2018-03-16T03:02:42.860Z,3.45
2018-03-16T03:03:42.879Z,3.34
2018-03-16T03:04:42.895Z,3.45
2018-03-16T03:05:42.918Z,3.42
2018-03-16T03:06:42.927Z,3.46
2018-03-16T03:07:42.944Z,3.46
2018-03-16T03:08:42.958Z,3.45
2018-03-16T03:09:42.980Z,3.44
2018-03-16T03:10:42.990Z,3.35
2018-03-16T03:11:43.008Z,3.33
2018-03-16T03:12:43.024Z,3.41
2018-03-16T03:13:43.040Z,3.42
2018-03-16T03:14:43.059Z,3.50
2018-03-16T03:15:43.074Z,3.49
2018-03-16T03:16:43.084Z,3.50
2018-03-16T03:17:43.106Z,3.53
2018-03-16T03:18:43.120Z,3.33
2018-03-16T03:19:43.135Z,3.52
2018-03-16T03:20:43.150Z,3.37
2018-03-16T03:21:43.169Z,3.41
2018-03-16T03:22:43.184Z,3.26
2018-03-16T03:23:43.198Z,3.26
2018-03-16T03:24:43.214Z,3.26
2018-03-16T03:25:43.233Z,3.17
2018-03-16T03:26:43.245Z,3.17
2018-03-16T03:27:43.261Z,3.30
2018-03-16T03:28:43.283Z,3.23
2018-03-16T03:29:43.298Z,3.22
2018-03-16T03:30:43.310Z,3.16
2018-03-16T03:31:43.325Z,3.12
2018-03-16T03:32:43.350Z,3.16
2018-03-16T03:33:43.361Z,3.19
2018-03-16T03:34:43.373Z,3.22
2018-03-16T03:35:43.392Z,3.26
2018-03-16T03:36:43.406Z,3.30
2018-03-16T03:37:43.423Z,3.28
2018-03-16T03:38:43.437Z,3.30
2018-03-16T03:39:43.458Z,3.44
2018-03-16T03:40:43.470Z,3.46
2018-03-16T03:41:43.482Z,3.50
2018-03-16T03:42:43.498Z,3.35
2018-03-16T03:43:43.516Z,3.41
2018-03-16T03:44:43.537Z,3.39
2018-03-16T03:45:43.551Z,3.30
2018-03-16T03:46:43.563Z,3.20
2018-03-16T03:47:43.581Z,3.23
2018-03-16T03:48:43.597Z,3.15
2018-03-16T03:49:43.613Z,3.20
2018-03-16T03:50:43.627Z,3.20
2018-03-16T03:51:43.643Z,3.22
2018-03-16T03:52:43.662Z,3.15
2018-03-16T03:53:43.677Z,3.12
2018-03-16T03:54:43.698Z,3.07
2018-03-16T03:55:43.707Z,3.01
2018-03-16T03:56:43.723Z,2.99
2018-03-16T03:57:43.742Z,3.12
2018-03-16T03:58:43.760Z,3.10
2018-03-16T03:59:43.775Z,3.12
2018-03-16T04:00:43.787Z,3.16
2018-03-16T04:01:43.803Z,3.15
2018-03-16T04:02:43.822Z,3.08
2018-03-16T04:03:43.839Z,3.13
2018-03-16T04:04:43.855Z,3.22
2018-03-16T04:05:43.867Z,3.20
2018-03-16T04:06:43.885Z,3.15
2018-03-16T04:07:43.901Z,3.15
2018-03-16T04:08:43.920Z,3.07
2018-03-16T04:09:43.931Z,2.98
2018-03-16T04:10:43.947Z,2.97
2018-03-16T04:11:43.961Z,2.97
2018-03-16T04:12:43.984Z,2.89
2018-03-16T04:13:43.999Z,2.86
2018-03-16T04:14:44.012Z,2.95
2018-03-16T04:15:44.028Z,2.95
2018-03-16T04:16:44.045Z,2.94
2018-03-16T04:17:44.059Z,2.92
2018-03-16T04:18:44.072Z,2.94
2018-03-16T04:19:44.092Z,3.13
2018-03-16T04:20:44.110Z,3.05
2018-03-16T04:21:44.127Z,2.99
2018-03-16T04:22:44.141Z,3.04
2018-03-16T04:23:44.152Z,2.97
2018-03-16T04:24:44.174Z,2.98
2018-03-16T04:25:44.196Z,2.86
2018-03-16T04:26:44.205Z,2.99
2018-03-16T04:27:44.219Z,2.98
2018-03-16T04:28:44.240Z,3.02
2018-03-16T04:29:44.251Z,2.94
2018-03-16T04:30:44.269Z,2.89
2018-03-16T04:31:44.286Z,2.81
2018-03-16T04:32:44.299Z,2.87
2018-03-16T04:33:44.311Z,2.94
2018-03-16T04:34:44.333Z,3.04
2018-03-16T04:35:44.348Z,3.07
2018-03-16T04:36:44.374Z,3.10
2018-03-16T04:37:44.381Z,3.02
2018-03-16T04:38:44.395Z,3.07
2018-03-16T04:39:44.414Z,2.90
2018-03-16T04:40:44.427Z,2.94
2018-03-16T04:41:44.440Z,2.95
2018-03-16T04:42:44.458Z,2.90
2018-03-16T04:43:44.469Z,2.90
2018-03-16T04:44:44.489Z,2.87
2018-03-16T04:45:44.505Z,2.84
2018-03-16T04:46:44.519Z,2.89
2018-03-16T04:47:44.534Z,2.81
2018-03-16T04:48:44.558Z,2.68
2018-03-16T04:49:44.568Z,2.74
2018-03-16T04:50:44.591Z,2.69
2018-03-16T04:51:44.599Z,2.80
2018-03-16T04:52:44.616Z,2.80
2018-03-16T04:53:44.628Z,2.81
2018-03-16T04:54:44.649Z,2.81
2018-03-16T04:55:44.664Z,2.80
2018-03-16T04:56:44.678Z,2.83
2018-03-16T04:57:44.694Z,2.73
2018-03-16T04:58:44.717Z,2.81
2018-03-16T04:59:44.729Z,2.90
2018-03-16T05:00:44.741Z,2.90
2018-03-16T05:01:44.759Z,2.89
2018-03-16T05:02:44.778Z,2.87
2018-03-16T05:03:44.792Z,2.97
2018-03-16T05:04:44.809Z,2.94
2018-03-16T05:05:44.829Z,2.83
2018-03-16T05:06:44.836Z,2.87
2018-03-16T05:07:44.856Z,2.86
2018-03-16T05:08:44.872Z,2.94
2018-03-16T05:09:44.886Z,2.92
2018-03-16T05:10:44.906Z,2.89
2018-03-16T05:11:44.920Z,2.80
2018-03-16T05:12:44.933Z,2.74
2018-03-16T05:13:44.951Z,2.80
2018-03-16T05:14:44.968Z,2.86
2018-03-16T05:15:44.996Z,2.86
2018-03-16T05:16:45.002Z,2.94
2018-03-16T05:17:45.013Z,2.99
2018-03-16T05:18:45.032Z,2.95
2018-03-16T05:19:45.041Z,2.86
2018-03-16T05:20:45.061Z,2.81
2018-03-16T05:21:45.077Z,2.79
2018-03-16T05:22:45.093Z,2.79
2018-03-16T05:23:45.110Z,2.77
2018-03-16T05:24:45.124Z,2.80
2018-03-16T05:25:45.138Z,2.89
2018-03-16T05:26:45.159Z,2.99
2018-03-16T05:27:45.174Z,2.95
2018-03-16T05:28:45.190Z,2.92
2018-03-16T05:29:45.208Z,2.87
2018-03-16T05:30:45.218Z,2.95
2018-03-16T05:31:45.237Z,2.83
2018-03-16T05:32:45.252Z,2.77
2018-03-16T05:33:45.266Z,2.80
2018-03-16T05:34:45.283Z,2.84
2018-03-16T05:35:45.297Z,2.89
2018-03-16T05:36:45.321Z,2.92
2018-03-16T05:37:45.330Z,2.92
2018-03-16T05:38:45.347Z,2.84
2018-03-16T05:39:45.366Z,2.87
2018-03-16T05:40:45.430Z,2.83
2018-03-16T05:41:45.393Z,2.81
2018-03-16T05:42:45.411Z,2.90
2018-03-16T05:43:45.422Z,2.94
2018-03-16T05:44:45.441Z,3.01
2018-03-16T05:45:45.458Z,3.05
2018-03-16T05:46:45.476Z,2.97
2018-03-16T05:47:45.492Z,2.94
2018-03-16T05:48:45.510Z,3.08
2018-03-16T05:49:45.522Z,3.05
2018-03-16T05:50:45.536Z,3.04
2018-03-16T05:51:45.552Z,2.99
2018-03-16T05:52:45.565Z,2.90
2018-03-16T05:53:45.585Z,2.80
2018-03-16T05:54:45.601Z,2.74
2018-03-16T05:55:45.616Z,2.74
2018-03-16T05:56:45.630Z,2.84
2018-03-16T05:57:45.649Z,2.97
2018-03-16T05:58:45.670Z,3.01
2018-03-16T05:59:45.681Z,3.04
2018-03-16T06:00:45.705Z,2.92
2018-03-16T06:01:45.714Z,2.98
2018-03-16T06:02:45.728Z,2.92
2018-03-16T06:03:45.744Z,2.90
2018-03-16T06:04:45.759Z,2.97
2018-03-16T06:05:45.781Z,2.99
2018-03-16T06:06:45.793Z,3.02
2018-03-16T06:07:45.813Z,2.98
2018-03-16T06:08:45.829Z,2.95
2018-03-16T06:09:45.837Z,2.87
2018-03-16T06:10:45.864Z,2.97
2018-03-16T06:11:45.869Z,2.92
2018-03-16T06:12:45.888Z,2.99
2018-03-16T06:13:45.905Z,2.84
2018-03-16T06:14:45.919Z,2.81
2018-03-16T06:15:45.938Z,2.81
2018-03-16T06:16:45.954Z,2.81
2018-03-16T06:17:45.970Z,2.73
2018-03-16T06:18:45.984Z,2.81
2018-03-16T06:19:45.999Z,2.90
2018-03-16T06:20:46.014Z,2.95
2018-03-16T06:21:46.031Z,3.02
2018-03-16T06:22:46.045Z,3.01
2018-03-16T06:23:46.062Z,3.08
2018-03-16T06:24:46.076Z,3.15
2018-03-16T06:25:46.093Z,3.02
2018-03-16T06:26:46.110Z,2.92
2018-03-16T06:27:46.128Z,2.89
2018-03-16T06:28:46.139Z,3.04
2018-03-16T06:29:46.155Z,3.20
2018-03-16T06:30:46.174Z,3.02
2018-03-16T06:31:46.188Z,2.95
2018-03-16T06:32:46.207Z,3.04
2018-03-16T06:33:46.222Z,2.90
2018-03-16T06:34:46.234Z,2.73
2018-03-16T06:35:46.254Z,2.76
2018-03-16T06:36:46.265Z,2.71
2018-03-16T06:37:46.283Z,2.81
2018-03-16T06:38:46.304Z,2.95
2018-03-16T06:39:46.315Z,2.87
2018-03-16T06:40:46.332Z,2.97
2018-03-16T06:41:46.343Z,2.76
2018-03-16T06:42:46.363Z,2.69
2018-03-16T06:43:46.379Z,2.74
2018-03-16T06:44:46.478Z,2.79
2018-03-16T06:45:46.413Z,2.86
2018-03-16T06:46:46.432Z,2.79
2018-03-16T06:47:46.443Z,2.71
2018-03-16T06:48:46.458Z,2.77
2018-03-16T06:49:46.476Z,2.92
2018-03-16T06:50:46.490Z,2.86
2018-03-16T06:51:46.502Z,2.79
2018-03-16T06:52:46.526Z,2.84
2018-03-16T06:53:46.536Z,2.89
2018-03-16T06:54:46.553Z,2.95
2018-03-16T06:55:46.572Z,2.90
2018-03-16T06:56:46.587Z,2.90
2018-03-16T06:57:46.602Z,2.77
2018-03-16T06:58:46.614Z,2.69
2018-03-16T06:59:46.637Z,2.74
2018-03-16T07:00:46.651Z,2.68
2018-03-16T07:01:46.676Z,2.63
2018-03-16T07:02:46.681Z,2.69
2018-03-16T07:03:46.696Z,2.76
2018-03-16T07:04:46.707Z,2.89
2018-03-16T07:05:46.727Z,2.87
2018-03-16T07:06:46.741Z,2.87
2018-03-16T07:07:46.769Z,2.77
2018-03-16T07:08:46.775Z,2.76
2018-03-16T07:09:46.793Z,2.79
2018-03-16T07:10:46.806Z,2.80
2018-03-16T07:11:46.818Z,2.87
2018-03-16T07:12:46.836Z,2.81
2018-03-16T07:13:46.853Z,2.65
2018-03-16T07:14:46.867Z,2.76
2018-03-16T07:15:46.888Z,2.69
2018-03-16T07:16:46.895Z,2.79
2018-03-16T07:17:46.916Z,2.89
2018-03-16T07:18:46.932Z,2.87
2018-03-16T07:19:46.948Z,2.94
2018-03-16T07:20:46.961Z,2.95
2018-03-16T07:21:46.980Z,2.90
2018-03-16T07:22:46.991Z,2.86
2018-03-16T07:23:47.011Z,2.94
2018-03-16T07:24:47.272Z,2.87
2018-03-16T07:25:47.041Z,2.77
2018-03-16T07:26:47.061Z,2.84
2018-03-16T07:27:47.074Z,2.83
2018-03-16T07:28:47.085Z,2.95
2018-03-16T07:29:47.131Z,2.90
2018-03-16T07:30:47.124Z,2.97
2018-03-16T07:31:47.138Z,3.07
2018-03-16T07:32:47.167Z,3.05
2018-03-16T07:33:47.172Z,3.10
2018-03-16T07:34:47.180Z,3.04
2018-03-16T07:35:47.195Z,3.04
2018-03-16T07:36:47.216Z,3.07
2018-03-16T07:37:47.234Z,3.02
2018-03-16T07:38:47.249Z,2.99
2018-03-16T07:39:47.260Z,2.89
2018-03-16T07:40:47.276Z,3.01
2018-03-16T07:41:47.296Z,2.94
2018-03-16T07:42:47.312Z,2.99
2018-03-16T07:43:47.326Z,2.97
2018-03-16T07:44:47.339Z,3.16
2018-03-16T07:45:47.358Z,2.97
2018-03-16T07:46:47.376Z,3.07
2018-03-16T07:47:47.386Z,3.05
2018-03-16T07:48:47.406Z,3.20
2018-03-16T07:49:47.421Z,3.17
2018-03-16T07:50:47.438Z,3.04
2018-03-16T07:51:47.450Z,2.99
2018-03-16T07:52:47.466Z,3.10
2018-03-16T07:53:47.480Z,3.22
2018-03-16T07:54:47.506Z,3.20
2018-03-16T07:55:47.571Z,3.16
2018-03-16T07:56:47.571Z,3.22
2018-03-16T07:57:47.544Z,3.17
2018-03-16T07:58:47.558Z,3.04
2018-03-16T07:59:47.581Z,3.16
2018-03-16T08:00:47.591Z,3.02
2018-03-16T08:01:47.608Z,2.98
2018-03-16T08:02:47.624Z,3.04
2018-03-16T08:03:47.639Z,3.02
2018-03-16T08:04:47.653Z,3.07
2018-03-16T08:05:47.668Z,2.97
2018-03-16T08:06:47.725Z,2.94
2018-03-16T08:07:47.704Z,3.05
2018-03-16T08:08:47.760Z,3.05
2018-03-16T08:09:47.737Z,3.04
2018-03-16T08:10:47.753Z,3.08
2018-03-16T08:11:47.769Z,3.15
2018-03-16T08:12:47.783Z,3.25
2018-03-16T08:13:47.804Z,3.50
2018-03-16T08:14:47.812Z,3.42
2018-03-16T08:15:47.828Z,3.30
2018-03-16T08:16:47.844Z,3.17
2018-03-16T08:17:47.873Z,3.20
2018-03-16T08:18:47.878Z,3.19
2018-03-16T08:19:47.892Z,3.15
2018-03-16T08:20:47.908Z,3.01
2018-03-16T08:21:47.924Z,3.04
2018-03-16T08:22:47.942Z,3.05
2018-03-16T08:23:47.954Z,3.12
2018-03-16T08:24:47.973Z,3.19
2018-03-16T08:25:47.998Z,3.19
2018-03-16T08:26:48.252Z,3.25
2018-03-16T08:27:48.018Z,3.20
2018-03-16T08:28:48.035Z,3.23
2018-03-16T08:29:48.052Z,3.23
2018-03-16T08:30:48.068Z,3.25
2018-03-16T08:31:48.082Z,3.17
2018-03-16T08:32:48.101Z,3.25
2018-03-16T08:33:48.117Z,3.20
2018-03-16T08:34:48.134Z,3.17
2018-03-16T08:35:48.155Z,3.20
2018-03-16T08:36:48.166Z,3.26
2018-03-16T08:37:48.185Z,3.30
2018-03-16T08:38:48.199Z,3.39
2018-03-16T08:39:48.216Z,3.54
2018-03-16T08:40:48.228Z,3.52
2018-03-16T08:41:48.256Z,3.53
2018-03-16T08:42:48.261Z,3.52
2018-03-16T08:43:48.285Z,3.59
2018-03-16T08:44:48.293Z,3.63
2018-03-16T08:45:48.308Z,3.34
2018-03-16T08:46:48.328Z,3.44
2018-03-16T08:47:48.341Z,3.42
2018-03-16T08:48:48.361Z,3.45
2018-03-16T08:49:48.429Z,3.52
2018-03-16T08:50:48.391Z,3.57
2018-03-16T08:51:48.409Z,3.52
2018-03-16T08:52:48.427Z,3.54
2018-03-16T08:53:48.440Z,3.52
2018-03-16T08:54:48.461Z,3.60
2018-03-16T08:55:48.473Z,3.56
2018-03-16T08:56:48.486Z,3.52
2018-03-16T08:57:48.500Z,3.54
2018-03-16T08:58:48.522Z,3.50
2018-03-16T08:59:48.550Z,3.53
2018-03-16T09:00:48.551Z,3.56
2018-03-16T09:01:48.565Z,3.62
2018-03-16T09:02:48.590Z,3.62
2018-03-16T09:03:48.604Z,3.59
2018-03-16T09:04:48.616Z,3.53
2018-03-16T09:05:48.637Z,3.62
2018-03-16T09:06:48.651Z,3.53
2018-03-16T09:07:48.666Z,3.53
2018-03-16T09:08:48.684Z,3.53
2018-03-16T09:09:48.702Z,3.50
2018-03-16T09:10:48.716Z,3.45
2018-03-16T09:11:48.732Z,3.52
2018-03-16T09:12:49.004Z,3.52
2018-03-16T09:13:48.768Z,3.42
2018-03-16T09:14:48.786Z,3.50
2018-03-16T09:15:48.795Z,3.44
2018-03-16T09:16:48.814Z,3.44
2018-03-16T09:17:48.830Z,3.37
2018-03-16T09:18:48.859Z,3.35
2018-03-16T09:19:48.870Z,3.41
2018-03-16T09:20:48.878Z,3.33
2018-03-16T09:21:48.899Z,3.44
2018-03-16T09:22:48.928Z,3.33
2018-03-16T09:23:48.934Z,3.39
2018-03-16T09:24:48.952Z,3.30
2018-03-16T09:25:48.961Z,3.45
2018-03-16T09:26:48.980Z,3.46
2018-03-16T09:27:48.989Z,3.49
2018-03-16T09:28:49.017Z,3.50
2018-03-16T09:29:49.040Z,3.59
2018-03-16T09:30:49.049Z,3.46
2018-03-16T09:31:49.059Z,3.63
2018-03-16T09:32:49.072Z,3.50
2018-03-16T09:33:49.104Z,3.41
2018-03-16T09:34:49.176Z,3.46
2018-03-16T09:35:49.123Z,3.37
2018-03-16T09:36:49.140Z,3.56
2018-03-16T09:37:49.166Z,3.44
2018-03-16T09:38:49.175Z,3.53
2018-03-16T09:39:49.189Z,3.46
2018-03-16T09:40:49.212Z,3.34
2018-03-16T09:41:49.224Z,3.35
2018-03-16T09:42:49.238Z,3.39
2018-03-16T09:43:49.257Z,3.30
2018-03-16T09:44:49.273Z,3.41
2018-03-16T09:45:49.292Z,3.39
2018-03-16T09:46:49.300Z,3.49
2018-03-16T09:47:49.319Z,3.49
2018-03-16T09:48:49.338Z,3.42
2018-03-16T09:49:49.347Z,3.31
2018-03-16T09:50:49.365Z,3.22
2018-03-16T09:51:49.384Z,3.19
2018-03-16T09:52:49.401Z,3.19
2018-03-16T09:53:49.416Z,3.26
2018-03-16T09:54:49.438Z,3.26
2018-03-16T09:55:49.443Z,3.39
2018-03-16T09:56:49.464Z,3.37
2018-03-16T09:57:49.479Z,3.49
2018-03-16T09:58:49.493Z,3.44
2018-03-16T09:59:49.512Z,3.42
2018-03-16T10:00:49.527Z,3.39
2018-03-16T10:01:49.541Z,3.23
2018-03-16T10:02:49.557Z,3.37
2018-03-16T10:03:49.574Z,3.33
2018-03-16T10:04:49.593Z,3.35
2018-03-16T10:05:49.606Z,3.45
2018-03-16T10:06:49.625Z,3.42
2018-03-16T10:07:49.642Z,3.53
2018-03-16T10:08:49.656Z,3.56
2018-03-16T10:09:49.673Z,3.53
2018-03-16T10:10:49.690Z,3.49
2018-03-16T10:11:49.703Z,3.54
2018-03-16T10:12:49.723Z,3.50
2018-03-16T10:13:49.744Z,3.54
2018-03-16T10:14:49.758Z,3.45
2018-03-16T10:15:49.769Z,3.62
2018-03-16T10:16:49.788Z,3.56
2018-03-16T10:17:49.840Z,3.70
2018-03-16T10:18:49.818Z,3.74
2018-03-16T10:19:49.832Z,3.77
2018-03-16T10:20:49.851Z,3.70
2018-03-16T10:21:49.863Z,3.72
2018-03-16T10:22:49.881Z,3.78
2018-03-16T10:23:49.897Z,3.68
2018-03-16T10:24:49.917Z,3.59
2018-03-16T10:25:49.933Z,3.68
2018-03-16T10:26:49.946Z,3.70
2018-03-16T10:27:49.961Z,3.68
2018-03-16T10:28:49.979Z,3.80
2018-03-16T10:29:49.992Z,3.81
2018-03-16T10:30:50.028Z,3.81
2018-03-16T10:31:50.025Z,3.86
2018-03-16T10:32:50.053Z,3.70
2018-03-16T10:33:50.061Z,3.64
2018-03-16T10:34:50.087Z,3.62
2018-03-16T10:35:50.113Z,3.71
2018-03-16T10:36:50.114Z,3.54
2018-03-16T10:37:50.133Z,3.77
2018-03-16T10:38:50.150Z,3.71
2018-03-16T10:39:50.163Z,3.89
2018-03-16T10:40:50.175Z,3.89
2018-03-16T10:41:50.197Z,3.93
2018-03-16T10:42:50.268Z,3.82
2018-03-16T10:43:50.225Z,3.84
2018-03-16T10:44:50.248Z,3.67
2018-03-16T10:45:50.269Z,3.57
2018-03-16T10:46:50.277Z,3.60
2018-03-16T10:47:50.290Z,3.63
2018-03-16T10:48:50.334Z,3.62
2018-03-16T10:49:50.324Z,3.72
2018-03-16T10:50:50.343Z,3.68
2018-03-16T10:51:50.360Z,3.72
2018-03-16T10:52:50.373Z,3.57
2018-03-16T10:53:50.393Z,3.53
2018-03-16T10:54:50.413Z,3.68
2018-03-16T10:55:50.424Z,3.57
2018-03-16T10:56:50.439Z,3.59
2018-03-16T10:57:50.453Z,3.49
2018-03-16T10:58:50.488Z,3.56
2018-03-16T10:59:50.489Z,3.52
2018-03-16T11:00:50.513Z,3.64
2018-03-16T11:01:50.529Z,3.74
2018-03-16T11:02:50.539Z,3.70
2018-03-16T11:03:50.561Z,3.70
2018-03-16T11:04:50.568Z,3.78
2018-03-16T11:05:50.610Z,3.90
2018-03-16T11:06:50.607Z,3.70
2018-03-16T11:07:50.624Z,3.62
2018-03-16T11:08:50.639Z,3.63
2018-03-16T11:09:50.657Z,3.52
2018-03-16T11:10:50.678Z,3.60
2018-03-16T11:11:50.683Z,3.68
2018-03-16T11:12:50.709Z,3.72
2018-03-16T11:13:50.723Z,3.86
2018-03-16T11:14:50.738Z,3.88
2018-03-16T11:15:50.754Z,3.93
2018-03-16T11:16:50.770Z,3.89
2018-03-16T11:17:50.792Z,3.84
2018-03-16T11:18:50.806Z,3.98
2018-03-16T11:19:50.821Z,3.99
2018-03-16T11:20:50.832Z,4.10
2018-03-16T11:21:50.862Z,4.06
2018-03-16T11:22:50.872Z,3.90
2018-03-16T11:23:50.882Z,3.68
2018-03-16T11:24:50.911Z,3.67
2018-03-16T11:25:50.922Z,3.72
2018-03-16T11:26:50.937Z,3.70
2018-03-16T11:27:50.958Z,3.72
2018-03-16T11:28:50.968Z,3.77
2018-03-16T11:29:51.239Z,3.68
2018-03-16T11:30:51.002Z,3.63
2018-03-16T11:31:51.016Z,3.60
2018-03-16T11:32:51.034Z,3.54
2018-03-16T11:33:51.057Z,3.60
2018-03-16T11:34:51.071Z,3.53
2018-03-16T11:35:51.082Z,3.50
2018-03-16T11:36:51.347Z,3.56
2018-03-16T11:37:51.117Z,3.67
2018-03-16T11:38:51.132Z,3.71
2018-03-16T11:39:51.155Z,3.81
2018-03-16T11:40:51.167Z,3.82
2018-03-16T11:41:51.183Z,3.98
2018-03-16T11:42:51.204Z,3.98
2018-03-16T11:43:51.217Z,3.95
2018-03-16T11:44:51.232Z,3.92
2018-03-16T11:45:51.253Z,3.81
2018-03-16T11:46:51.266Z,3.70
2018-03-16T11:47:51.281Z,3.64
2018-03-16T11:48:51.297Z,3.64
2018-03-16T11:49:51.321Z,3.67
2018-03-16T11:50:51.329Z,3.68
2018-03-16T11:51:51.349Z,3.78
2018-03-16T11:52:51.365Z,3.77
2018-03-16T11:53:51.380Z,3.68
2018-03-16T11:54:51.404Z,3.59
2018-03-16T11:55:51.413Z,3.62
2018-03-16T11:56:51.427Z,3.60
2018-03-16T11:57:51.696Z,3.62
2018-03-16T11:58:51.464Z,3.68
2018-03-16T11:59:51.481Z,3.89
2018-03-16T12:00:51.499Z,3.80
2018-03-16T12:01:51.518Z,3.74
2018-03-16T12:02:51.533Z,3.70
2018-03-16T12:03:51.552Z,3.67
2018-03-16T12:04:51.562Z,3.62
2018-03-16T12:05:51.585Z,3.62
2018-03-16T12:06:51.599Z,3.63
2018-03-16T12:07:51.611Z,3.63
2018-03-16T12:08:51.627Z,3.59
2018-03-16T12:09:51.647Z,3.74
2018-03-16T12:10:51.665Z,3.67
2018-03-16T12:11:51.684Z,3.68
2018-03-16T12:12:51.704Z,3.72
2018-03-16T12:13:51.718Z,3.59
2018-03-16T12:14:51.730Z,3.60
2018-03-16T12:15:51.744Z,3.67
2018-03-16T12:16:51.759Z,3.64
2018-03-16T12:17:51.782Z,3.67
2018-03-16T12:18:51.794Z,3.57
2018-03-16T12:19:51.818Z,3.59
2018-03-16T12:20:51.821Z,3.52
2018-03-16T12:21:51.834Z,3.56
2018-03-16T12:22:52.010Z,3.62
2018-03-16T12:23:51.878Z,3.49
2018-03-16T12:24:52.036Z,3.63
2018-03-16T12:25:52.139Z,3.46
2018-03-16T12:26:51.936Z,3.46
2018-03-16T12:27:52.085Z,3.49
2018-03-16T12:28:51.955Z,3.59
2018-03-16T12:29:51.970Z,3.52
2018-03-16T12:30:51.983Z,3.63
2018-03-16T12:31:52.037Z,3.46
2018-03-16T12:33:52.188Z,3.50
2018-03-16T12:34:52.065Z,3.50
2018-03-16T12:35:52.086Z,3.54
2018-03-16T12:36:52.101Z,3.44
2018-03-16T12:37:52.105Z,3.56
2018-03-16T12:38:52.345Z,3.33
2018-03-16T12:39:52.178Z,3.17
2018-03-16T12:40:52.149Z,3.22
2018-03-16T12:41:52.177Z,3.16
2018-03-16T12:42:52.189Z,3.19
2018-03-16T12:43:52.204Z,3.23
2018-03-16T12:44:52.231Z,3.20
2018-03-16T12:45:52.239Z,3.34
2018-03-16T12:46:52.255Z,3.30
2018-03-16T12:47:52.277Z,3.35
2018-03-16T12:48:52.287Z,3.23
2018-03-16T12:49:52.303Z,3.28
2018-03-16T12:50:52.318Z,3.45
2018-03-16T12:51:52.333Z,3.37
2018-03-16T12:52:52.348Z,3.33
2018-03-16T12:53:52.365Z,3.45
2018-03-16T12:54:52.387Z,3.50
2018-03-16T12:55:52.402Z,3.49
2018-03-16T12:56:52.415Z,3.45
2018-03-16T12:57:52.437Z,3.34
2018-03-16T12:58:52.477Z,3.42
2018-03-16T12:59:52.467Z,3.28
2018-03-16T13:00:52.476Z,3.33
2018-03-16T13:01:52.496Z,3.33
2018-03-16T13:02:52.513Z,3.34
2018-03-16T13:03:52.526Z,3.39
2018-03-16T13:04:52.541Z,3.30
2018-03-16T13:05:52.563Z,3.28
2018-03-16T13:06:52.580Z,3.33
2018-03-16T13:07:52.668Z,3.33
2018-03-16T13:08:52.609Z,3.42
2018-03-16T13:09:52.623Z,3.33
2018-03-16T13:10:52.642Z,3.35
2018-03-16T13:11:52.658Z,3.39
2018-03-16T13:12:52.671Z,3.56
2018-03-16T13:13:52.745Z,3.50
2018-03-16T13:14:52.708Z,3.45
2018-03-16T13:15:52.723Z,3.46
2018-03-16T13:16:52.739Z,3.52
2018-03-16T13:17:52.750Z,3.41
2018-03-16T13:18:52.768Z,3.34
2018-03-16T13:19:52.786Z,3.37